createdAt,value
2022-08-28T00:01:08.262Z,18.33
2022-08-28T00:03:37.790Z,20.13
2022-08-28T00:06:08.211Z,16.42
2022-08-28T00:08:37.470Z,16.27
2022-08-28T00:11:07.982Z,17.42
2022-08-28T00:13:38.021Z,20.95
2022-08-28T00:16:08.978Z,18.75
2022-08-28T00:18:38.491Z,18.52
2022-08-28T00:21:07.863Z,20.58
2022-08-28T00:23:42.970Z,21.80
2022-08-28T00:26:33.818Z,20.52
2022-08-28T00:29:02.357Z,19.90
2022-08-28T00:31:33.341Z,19.67
2022-08-28T00:34:03.241Z,22.23
2022-08-28T00:36:32.493Z,19.30
2022-08-28T00:39:01.715Z,19.55
2022-08-28T00:41:32.661Z,16.08
2022-08-28T00:44:13.361Z,21.25
2022-08-28T00:46:47.581Z,18.75
2022-08-28T00:49:20.654Z,20.33
2022-08-28T00:52:08.247Z,19.35
2022-08-28T00:54:59.661Z,24.15
2022-08-28T00:57:41.603Z,20.52
2022-08-28T01:00:16.564Z,16.95
2022-08-28T01:02:47.300Z,16.52
2022-08-28T01:05:18.514Z,17.15
2022-08-28T01:07:49.270Z,24.77
2022-08-28T01:10:24.380Z,20.52
2022-08-28T01:12:57.602Z,16.83
2022-08-28T01:15:32.987Z,24.90
2022-08-28T01:18:08.709Z,19.90
2022-08-28T01:20:45.144Z,21.60
2022-08-28T01:23:45.849Z,19.45
2022-08-28T01:26:15.108Z,22.30
2022-08-28T01:28:45.341Z,19.45
2022-08-28T01:31:17.086Z,24.20
2022-08-28T01:33:48.515Z,21.88
2022-08-28T01:36:19.114Z,20.70
2022-08-28T01:38:54.165Z,22.45
2022-08-28T01:41:23.910Z,25.70
2022-08-28T01:43:53.950Z,19.90
2022-08-28T01:46:25.210Z,20.80
2022-08-28T01:48:54.553Z,21.48
2022-08-28T01:51:24.698Z,19.33
2022-08-28T01:53:55.501Z,24.98
2022-08-28T01:56:24.787Z,23.33
2022-08-28T01:58:54.088Z,20.70
2022-08-28T02:05:49.352Z,20.58
2022-08-28T02:08:18.622Z,22.73
2022-08-28T02:10:50.282Z,32.03
2022-08-28T02:13:19.598Z,20.63
2022-08-28T02:15:49.246Z,23.83
2022-08-28T02:18:19.059Z,21.70
2022-08-28T02:20:48.272Z,21.25
2022-08-28T02:23:17.921Z,20.42
2022-08-28T02:25:49.897Z,23.73
2022-08-28T02:28:20.394Z,31.77
2022-08-28T02:30:49.684Z,29.02
2022-08-28T02:33:18.917Z,28.27
2022-08-28T02:35:48.155Z,24.17
2022-08-28T02:38:17.907Z,26.20
2022-08-28T02:40:49.487Z,26.40
2022-08-28T02:43:18.662Z,19.48
2022-08-28T02:45:48.354Z,19.63
2022-08-28T02:48:17.710Z,18.00
2022-08-28T02:50:47.349Z,19.30
2022-08-28T02:53:16.547Z,16.52
2022-08-28T02:55:46.634Z,16.90
2022-08-28T02:58:17.217Z,15.15
2022-08-28T03:00:46.413Z,18.30
2022-08-28T03:03:15.679Z,24.63
2022-08-28T03:05:46.872Z,21.30
2022-08-28T03:08:16.198Z,22.45
2022-08-28T03:10:45.407Z,19.55
2022-08-28T03:13:26.837Z,28.25
2022-08-28T03:15:56.574Z,20.77
2022-08-28T03:18:26.926Z,20.80
2022-08-28T03:20:56.813Z,19.00
2022-08-28T03:23:28.910Z,18.27
2022-08-28T03:26:02.203Z,21.02
2022-08-28T03:28:36.243Z,20.40
2022-08-28T03:31:05.955Z,21.73
2022-08-28T03:33:36.447Z,23.13
2022-08-28T03:36:06.242Z,20.80
2022-08-28T03:38:36.480Z,19.63
2022-08-28T03:41:05.758Z,20.67
2022-08-28T03:43:36.446Z,20.20
2022-08-28T03:46:07.691Z,20.13
2022-08-28T03:48:40.587Z,16.25
2022-08-28T03:51:18.441Z,23.30
2022-08-28T03:53:47.885Z,22.90
2022-08-28T03:56:22.418Z,20.40
2022-08-28T03:58:58.161Z,24.20
2022-08-28T04:01:28.179Z,21.52
2022-08-28T04:03:57.909Z,24.88
2022-08-28T04:06:28.087Z,21.13
2022-08-28T04:08:59.880Z,21.55
2022-08-28T04:11:29.491Z,30.23
2022-08-28T04:14:00.052Z,25.92
2022-08-28T04:16:30.605Z,31.92
2022-08-28T04:19:00.138Z,21.80
2022-08-28T04:21:29.375Z,22.40
2022-08-28T04:23:58.598Z,22.33
2022-08-28T04:26:30.176Z,18.40
2022-08-28T04:29:00.800Z,20.40
2022-08-28T04:31:32.066Z,19.55
2022-08-28T04:34:03.381Z,26.80
2022-08-28T04:36:33.951Z,19.92
2022-08-28T04:39:05.484Z,18.40
2022-08-28T04:41:36.873Z,22.83
2022-08-28T04:44:08.492Z,20.42
2022-08-28T04:46:38.614Z,29.30
2022-08-28T04:49:07.933Z,21.55
2022-08-28T04:51:41.837Z,19.85
2022-08-28T04:54:11.983Z,21.98
2022-08-28T04:56:42.501Z,24.70
2022-08-28T04:59:13.807Z,19.55
2022-08-28T05:01:43.990Z,21.00
2022-08-28T05:04:13.979Z,20.73
2022-08-28T05:06:46.447Z,38.58
2022-08-28T05:09:18.718Z,71.22
2022-08-28T05:11:49.755Z,110.97
2022-08-28T05:14:21.880Z,65.18
2022-08-28T05:16:54.085Z,91.32
2022-08-28T05:19:24.251Z,47.47
2022-08-28T05:21:54.946Z,50.58
2022-08-28T05:24:24.385Z,74.18
2022-08-28T05:26:53.730Z,49.60
2022-08-28T05:29:25.030Z,43.95
2022-08-28T05:31:54.702Z,43.80
2022-08-28T05:34:54.991Z,45.85
2022-08-28T05:38:11.037Z,53.38
2022-08-28T05:40:44.727Z,41.88
2022-08-28T05:43:16.145Z,30.05
2022-08-28T05:45:58.565Z,32.13
2022-08-28T05:48:30.400Z,40.75
2022-08-28T05:51:07.594Z,34.97
2022-08-28T05:53:38.747Z,23.90
2022-08-28T05:56:09.094Z,28.85
2022-08-28T05:58:40.450Z,24.92
2022-08-28T06:01:16.623Z,22.08
2022-08-28T06:03:54.022Z,25.48
2022-08-28T06:06:27.917Z,24.40
2022-08-28T06:09:00.053Z,25.10
2022-08-28T06:11:31.306Z,22.15
2022-08-28T06:14:02.953Z,18.05
2022-08-28T06:16:41.937Z,19.10
2022-08-28T06:19:13.256Z,18.73
2022-08-28T06:21:43.380Z,21.58
2022-08-28T06:24:13.544Z,20.13
2022-08-28T06:26:42.949Z,16.33
2022-08-28T06:29:18.521Z,17.58
2022-08-28T06:31:56.234Z,18.17
2022-08-28T06:34:25.628Z,17.40
2022-08-28T06:36:55.344Z,16.50
2022-08-28T06:39:24.756Z,17.23
2022-08-28T06:41:55.443Z,15.13
2022-08-28T06:44:25.658Z,16.05
2022-08-28T06:46:57.307Z,16.13
2022-08-28T06:49:26.555Z,12.38
2022-08-28T06:51:56.288Z,14.57
2022-08-28T06:54:25.523Z,13.48
2022-08-28T06:56:54.656Z,11.95
2022-08-28T06:59:23.940Z,17.77
2022-08-28T07:01:55.524Z,10.43
2022-08-28T07:04:26.224Z,14.15
2022-08-28T07:06:55.423Z,12.55
2022-08-28T07:09:25.355Z,11.35
2022-08-28T07:11:54.823Z,15.75
2022-08-28T07:14:25.809Z,11.60
2022-08-28T07:16:56.043Z,15.07
2022-08-28T07:19:26.712Z,11.90
2022-08-28T07:21:55.935Z,13.90
2022-08-28T07:24:25.129Z,11.95
2022-08-28T07:26:54.533Z,17.88
2022-08-28T07:29:24.017Z,15.13
2022-08-28T07:31:56.505Z,13.32
2022-08-28T07:34:28.282Z,12.70
2022-08-28T07:37:04.150Z,11.82
2022-08-28T07:39:58.224Z,13.15
2022-08-28T07:42:44.834Z,12.05
2022-08-28T07:45:14.048Z,13.57
2022-08-28T07:47:43.121Z,11.43
2022-08-28T07:50:14.068Z,10.52
2022-08-28T07:52:43.273Z,12.73
2022-08-28T07:55:12.481Z,10.48
2022-08-28T07:57:43.311Z,15.13
2022-08-28T08:00:14.295Z,10.85
2022-08-28T08:02:43.656Z,11.65
2022-08-28T08:05:14.457Z,9.32
2022-08-28T08:07:43.969Z,12.00
2022-08-28T08:10:19.800Z,11.30
2022-08-28T08:12:49.245Z,13.65
2022-08-28T08:15:21.658Z,13.38
2022-08-28T08:17:51.932Z,9.32
2022-08-28T08:20:22.569Z,8.57
2022-08-28T08:22:51.938Z,8.40
2022-08-28T08:25:21.109Z,9.98
2022-08-28T08:27:52.257Z,10.07
2022-08-28T08:30:21.879Z,9.35
2022-08-28T08:32:52.489Z,11.23
2022-08-28T08:35:25.334Z,9.95
2022-08-28T08:37:54.473Z,7.65
2022-08-28T08:40:25.356Z,9.48
2022-08-28T08:42:57.218Z,12.73
2022-08-28T08:45:29.499Z,13.02
2022-08-28T08:48:01.422Z,8.43
2022-08-28T08:50:36.895Z,9.98
2022-08-28T08:53:25.383Z,11.23
2022-08-28T08:55:57.107Z,8.27
2022-08-28T08:58:32.853Z,8.45
2022-08-28T09:01:10.368Z,7.82
2022-08-28T09:03:53.828Z,6.72
2022-08-28T09:06:36.747Z,8.10
2022-08-28T09:09:17.091Z,12.07
2022-08-28T09:11:56.510Z,9.18
2022-08-28T09:14:38.085Z,8.05
2022-08-28T09:17:09.716Z,12.35
2022-08-28T09:19:39.162Z,9.50
2022-08-28T09:22:09.983Z,9.35
2022-08-28T09:24:42.433Z,8.05
2022-08-28T09:27:26.125Z,7.32
2022-08-28T09:30:07.213Z,8.50
2022-08-28T09:32:41.561Z,9.93
2022-08-28T09:35:19.073Z,10.65
2022-08-28T09:37:52.754Z,7.60
2022-08-28T09:40:26.766Z,9.65
2022-08-28T09:43:24.932Z,10.90
2022-08-28T09:45:59.437Z,12.05
2022-08-28T09:48:36.198Z,10.15
2022-08-28T09:51:09.436Z,10.20
2022-08-28T09:53:58.097Z,8.27
2022-08-28T09:56:32.145Z,7.53
2022-08-28T09:59:03.918Z,8.00
2022-08-28T10:01:57.635Z,8.75
2022-08-28T10:04:42.743Z,10.43
2022-08-28T10:07:23.016Z,9.18
2022-08-28T10:10:06.682Z,9.40
2022-08-28T10:12:51.903Z,7.68
2022-08-28T10:15:30.965Z,8.68
2022-08-28T10:18:39.482Z,8.15
2022-08-28T10:21:20.550Z,10.38
2022-08-28T10:24:07.734Z,10.23
2022-08-28T10:26:48.382Z,6.65
2022-08-28T10:29:42.017Z,10.52
2022-08-28T10:32:33.660Z,6.82
2022-08-28T10:35:12.044Z,8.65
2022-08-28T10:37:56.113Z,8.80
2022-08-28T10:40:30.812Z,6.93
2022-08-28T10:43:07.473Z,5.18
2022-08-28T10:45:38.971Z,6.72
2022-08-28T10:48:18.214Z,9.23
2022-08-28T10:50:52.406Z,8.77
2022-08-28T10:53:29.856Z,6.45
2022-08-28T10:56:04.706Z,5.32
2022-08-28T10:58:41.987Z,5.05
2022-08-28T11:01:20.529Z,8.00
2022-08-28T11:03:52.316Z,6.40
2022-08-28T11:06:33.437Z,5.93
2022-08-28T11:09:24.971Z,5.35
2022-08-28T11:12:01.751Z,9.88
2022-08-28T11:14:47.657Z,6.32
2022-08-28T11:17:42.207Z,7.20
2022-08-28T11:20:18.350Z,4.47
2022-08-28T11:22:51.502Z,5.70
2022-08-28T11:25:32.473Z,9.55
2022-08-28T11:28:17.681Z,7.80
2022-08-28T11:30:50.577Z,7.07
2022-08-28T11:33:41.967Z,7.13
2022-08-28T11:36:14.330Z,7.28
2022-08-28T11:39:22.115Z,5.82
2022-08-28T11:42:36.288Z,10.57
2022-08-28T11:45:06.653Z,8.73
2022-08-28T11:47:45.021Z,7.78
2022-08-28T11:50:31.671Z,6.53
2022-08-28T11:53:35.049Z,6.85
2022-08-28T11:56:31.838Z,8.57
2022-08-28T11:59:25.386Z,5.35
2022-08-28T12:02:53.441Z,7.28
2022-08-28T12:05:52.493Z,7.93
2022-08-28T12:09:13.658Z,6.78
2022-08-28T12:12:01.776Z,7.43
2022-08-28T12:15:10.795Z,5.43
2022-08-28T12:17:51.373Z,5.90
2022-08-28T12:20:33.587Z,7.55
2022-08-28T12:23:25.279Z,7.80
2022-08-28T12:26:04.753Z,5.53
2022-08-28T12:28:41.469Z,6.65
2022-08-28T12:32:08.877Z,5.30
2022-08-28T12:35:07.686Z,7.45
2022-08-28T12:37:51.286Z,6.32
2022-08-28T12:40:24.854Z,6.70
2022-08-28T12:42:58.358Z,6.35
2022-08-28T12:45:35.149Z,7.53
2022-08-28T12:48:10.491Z,7.63
2022-08-28T12:50:41.869Z,7.18
2022-08-28T12:53:18.203Z,6.47
2022-08-28T12:55:48.163Z,4.47
2022-08-28T12:58:33.298Z,5.38
2022-08-28T13:01:09.814Z,4.63
2022-08-28T13:03:50.470Z,8.32
2022-08-28T13:06:28.995Z,6.53
2022-08-28T13:09:04.289Z,8.55
2022-08-28T13:11:37.935Z,10.43
2022-08-28T13:14:08.589Z,5.47
2022-08-28T13:16:43.223Z,6.60
2022-08-28T13:19:36.227Z,6.28
2022-08-28T13:22:08.725Z,6.32
2022-08-28T13:24:46.910Z,8.02
2022-08-28T13:27:25.499Z,8.60
2022-08-28T13:30:08.297Z,9.43
2022-08-28T13:32:40.269Z,8.60
2022-08-28T13:35:37.717Z,6.57
2022-08-28T13:38:11.607Z,6.05
2022-08-28T13:40:58.303Z,7.80
2022-08-28T13:43:31.663Z,6.70
2022-08-28T13:46:01.199Z,7.22
2022-08-28T13:48:30.413Z,10.25
2022-08-28T13:51:07.506Z,8.07
2022-08-28T13:53:39.057Z,6.05
2022-08-28T13:56:09.663Z,6.47
2022-08-28T13:58:38.840Z,4.95
2022-08-28T14:01:08.417Z,8.45
2022-08-28T14:03:37.908Z,7.28
2022-08-28T14:06:11.637Z,6.38
2022-08-28T14:08:41.456Z,8.05
2022-08-28T14:11:15.051Z,6.25
2022-08-28T14:13:47.312Z,9.13
2022-08-28T14:16:25.922Z,7.78
2022-08-28T14:18:55.446Z,7.45
2022-08-28T14:21:25.424Z,7.18
2022-08-28T14:23:54.644Z,8.38
2022-08-28T14:26:25.318Z,7.05
2022-08-28T14:28:54.538Z,5.60
2022-08-28T14:31:26.457Z,8.45
2022-08-28T14:33:57.395Z,9.20
2022-08-28T14:36:31.443Z,5.97
2022-08-28T14:39:06.166Z,7.35
2022-08-28T14:41:37.886Z,5.93
2022-08-28T14:49:24.182Z,8.00
2022-08-28T14:51:55.120Z,5.20
2022-08-28T14:54:26.509Z,6.80
2022-08-28T14:57:13.934Z,5.20
2022-08-28T15:02:14.834Z,5.32
2022-08-28T15:04:44.172Z,5.57
2022-08-28T15:07:13.842Z,5.10
2022-08-28T15:09:44.198Z,3.90
2022-08-28T15:12:14.861Z,4.70
2022-08-28T15:14:55.231Z,5.88
2022-08-28T15:17:33.819Z,5.70
2022-08-28T15:20:07.834Z,6.45
2022-08-28T15:22:37.090Z,5.60
2022-08-28T15:25:07.711Z,8.30
2022-08-28T15:30:33.590Z,6.35
2022-08-28T15:33:02.968Z,6.10
2022-08-28T15:35:33.905Z,7.75
2022-08-28T15:38:06.730Z,8.45
2022-08-28T15:40:53.866Z,7.95
2022-08-28T15:43:23.194Z,5.50
2022-08-28T15:45:54.065Z,6.80
2022-08-28T15:48:23.460Z,6.22
2022-08-28T15:50:52.749Z,5.72
2022-08-28T15:53:22.283Z,8.43
2022-08-28T15:55:51.866Z,8.82
2022-08-28T15:58:21.257Z,8.73
2022-08-28T16:00:51.023Z,11.02
2022-08-28T16:03:26.715Z,7.55
2022-08-28T16:05:56.633Z,6.65
2022-08-28T16:08:27.356Z,8.77
2022-08-28T16:10:57.035Z,7.15
2022-08-28T16:13:26.335Z,8.55
2022-08-28T16:15:55.907Z,8.90
2022-08-28T16:18:29.373Z,7.93
2022-08-28T16:21:02.691Z,6.05
2022-08-28T16:23:37.391Z,9.23
2022-08-28T16:26:08.381Z,9.15
2022-08-28T16:28:43.745Z,10.88
2022-08-28T16:31:19.210Z,9.25
2022-08-28T16:33:53.637Z,13.25
2022-08-28T16:36:23.873Z,14.75
2022-08-28T16:39:04.916Z,10.52
2022-08-28T16:41:36.344Z,12.25
2022-08-28T16:44:05.883Z,12.07
2022-08-28T16:46:37.387Z,11.82
2022-08-28T16:49:08.061Z,10.55
2022-08-28T16:51:37.505Z,11.43
2022-08-28T16:54:07.568Z,13.68
2022-08-28T16:56:37.211Z,12.60
2022-08-28T16:59:10.562Z,12.10
2022-08-28T17:01:42.708Z,11.82
2022-08-28T17:04:14.176Z,15.95
2022-08-28T17:06:46.093Z,10.52
2022-08-28T17:09:15.650Z,11.85
2022-08-28T17:11:45.065Z,11.95
2022-08-28T17:14:22.173Z,12.35
2022-08-28T17:16:53.547Z,13.45
2022-08-28T17:19:27.533Z,14.63
2022-08-28T17:22:17.224Z,10.93
2022-08-28T17:24:47.002Z,22.20
2022-08-28T17:27:22.425Z,23.73
2022-08-28T17:29:58.992Z,47.15
2022-08-28T17:32:28.726Z,14.07
2022-08-28T17:34:59.756Z,16.17
2022-08-28T17:37:29.482Z,14.15
2022-08-28T17:39:58.965Z,13.65
2022-08-28T17:42:28.370Z,17.80
2022-08-28T17:44:57.673Z,17.63
2022-08-28T17:47:30.702Z,16.00
2022-08-28T17:50:02.850Z,18.75
2022-08-28T17:52:33.004Z,17.90
2022-08-28T17:55:02.977Z,19.48
2022-08-28T17:57:32.584Z,20.67
2022-08-28T18:00:05.277Z,16.33
2022-08-28T18:02:41.440Z,17.13
2022-08-28T18:05:16.883Z,19.98
2022-08-28T18:07:46.468Z,22.58
2022-08-28T18:10:16.538Z,19.33
2022-08-28T18:12:46.313Z,23.08
2022-08-28T18:15:16.923Z,20.25
2022-08-28T18:17:50.594Z,17.35
2022-08-28T18:20:21.744Z,16.67
2022-08-28T18:22:51.459Z,19.42
2022-08-28T18:25:42.177Z,22.35
2022-08-28T18:28:23.859Z,18.73
2022-08-28T18:30:56.821Z,19.15
2022-08-28T18:33:29.823Z,24.92
2022-08-28T18:36:01.011Z,19.73
2022-08-28T18:38:35.065Z,19.98
2022-08-28T18:41:10.220Z,19.63
2022-08-28T18:43:40.160Z,21.17
2022-08-28T18:46:38.603Z,21.25
2022-08-28T18:51:44.339Z,20.10
2022-08-28T18:54:21.381Z,19.08
2022-08-28T18:56:52.487Z,19.33
2022-08-28T18:59:22.645Z,17.45
2022-08-28T19:01:53.927Z,17.77
2022-08-28T19:04:23.831Z,19.30
2022-08-28T19:06:54.729Z,17.10
2022-08-28T19:09:30.338Z,20.52
2022-08-28T19:12:03.562Z,20.98
2022-08-28T19:14:36.458Z,22.77
2022-08-28T19:17:05.852Z,24.98
2022-08-28T19:19:35.292Z,27.33
2022-08-28T19:22:08.180Z,31.40
2022-08-28T19:24:38.512Z,27.15
2022-08-28T19:27:07.921Z,27.05
2022-08-28T19:29:37.993Z,23.83
2022-08-28T19:32:08.474Z,26.05
2022-08-28T19:34:38.210Z,27.80
2022-08-28T19:37:09.207Z,25.05
2022-08-28T19:39:39.046Z,23.63
2022-08-28T19:42:09.194Z,22.35
2022-08-28T19:44:39.781Z,23.35
2022-08-28T19:47:10.435Z,21.65
2022-08-28T19:49:39.539Z,18.67
2022-08-28T19:52:10.513Z,20.17
2022-08-28T19:54:42.505Z,23.60
2022-08-28T19:57:12.429Z,22.48
2022-08-28T19:59:41.994Z,21.50
2022-08-28T20:02:14.306Z,22.75
2022-08-28T20:04:43.474Z,23.42
2022-08-28T20:07:14.299Z,23.23
2022-08-28T20:09:43.888Z,23.05
2022-08-28T20:12:14.818Z,27.65
2022-08-28T20:14:44.746Z,24.02
2022-08-28T20:17:14.280Z,27.77
2022-08-28T20:19:45.836Z,27.63
2022-08-28T20:22:21.504Z,27.17
2022-08-28T20:24:51.061Z,25.00
2022-08-28T20:27:21.247Z,25.52
2022-08-28T20:29:50.406Z,27.40
2022-08-28T20:32:19.583Z,25.20
2022-08-28T20:34:48.903Z,24.48
2022-08-28T20:37:19.587Z,18.98
2022-08-28T20:39:48.793Z,20.38
2022-08-28T20:42:18.381Z,21.95
2022-08-28T20:44:47.519Z,22.60
2022-08-28T20:47:16.653Z,21.58
2022-08-28T20:49:45.857Z,21.00
2022-08-28T20:52:15.702Z,18.63
2022-08-28T20:54:46.433Z,18.65
2022-08-28T20:57:21.309Z,23.58
2022-08-28T20:59:50.822Z,24.13
2022-08-28T21:02:24.712Z,22.77
2022-08-28T21:04:55.004Z,20.63
2022-08-28T21:07:26.624Z,25.67
2022-08-28T21:10:05.980Z,24.17
2022-08-28T21:12:37.882Z,20.98
2022-08-28T21:15:10.826Z,20.27
2022-08-28T21:17:40.095Z,20.30
2022-08-28T21:20:14.898Z,19.40
2022-08-28T21:22:44.517Z,21.67
2022-08-28T21:25:16.695Z,25.30
2022-08-28T21:27:47.013Z,23.65
2022-08-28T21:30:20.000Z,19.00
2022-08-28T21:32:50.028Z,26.73
2022-08-28T21:35:21.441Z,23.65
2022-08-28T21:37:51.212Z,23.13
2022-08-28T21:40:21.989Z,24.38
2022-08-28T21:42:51.285Z,21.05
2022-08-28T21:45:20.496Z,22.63
2022-08-28T21:47:49.668Z,21.50
2022-08-28T21:50:18.797Z,22.30
2022-08-28T21:52:47.964Z,19.80
2022-08-28T21:55:17.889Z,22.83
2022-08-28T21:57:48.513Z,22.17
2022-08-28T22:00:22.549Z,22.00
2022-08-28T22:02:51.794Z,22.08
2022-08-28T22:05:21.462Z,22.73
2022-08-28T22:07:50.647Z,23.17
2022-08-28T22:10:19.814Z,22.23
2022-08-28T22:12:50.610Z,22.73
2022-08-28T22:15:20.027Z,21.58
2022-08-28T22:17:49.153Z,17.88
2022-08-28T22:20:18.613Z,18.83
2022-08-28T22:23:05.272Z,24.52
2022-08-28T22:25:40.619Z,19.67
2022-08-28T22:28:11.984Z,20.10
2022-08-28T22:30:41.202Z,21.98
2022-08-28T22:33:13.053Z,19.73
2022-08-28T22:35:42.212Z,21.73
2022-08-28T22:38:11.762Z,20.52
2022-08-28T22:40:40.944Z,16.45
2022-08-28T22:43:11.577Z,23.60
2022-08-28T22:45:40.879Z,17.33
2022-08-28T22:48:11.154Z,17.33
2022-08-28T22:50:40.369Z,16.33
2022-08-28T22:53:09.833Z,15.98
2022-08-28T22:55:43.355Z,19.95
2022-08-28T22:58:14.345Z,17.42
2022-08-28T23:00:43.772Z,20.35
2022-08-28T23:03:12.987Z,20.65
2022-08-28T23:05:42.346Z,17.42
2022-08-28T23:08:11.537Z,24.92
2022-08-28T23:10:58.007Z,20.55
2022-08-28T23:13:31.152Z,16.25
2022-08-28T23:16:00.903Z,14.43
2022-08-28T23:18:41.548Z,14.63
2022-08-28T23:21:20.848Z,17.17
2022-08-28T23:23:49.931Z,16.33
2022-08-28T23:26:19.937Z,14.75
2022-08-28T23:28:50.752Z,20.20
2022-08-28T23:31:20.097Z,18.08
2022-08-28T23:33:50.949Z,15.85
2022-08-28T23:36:20.767Z,19.83
2022-08-28T23:38:49.923Z,22.58
2022-08-28T23:41:21.368Z,26.48
2022-08-28T23:43:52.667Z,20.33
2022-08-28T23:46:21.974Z,22.55
2022-08-28T23:48:51.158Z,18.48
2022-08-28T23:51:22.685Z,30.13
2022-08-28T23:53:54.321Z,46.42
2022-08-28T23:56:23.531Z,31.92
2022-08-28T23:58:58.965Z,48.72
